Time;durP1;ratioP1;P1;durP2;ratioP2;P2;SDS_P1;SDS_P2;PMS_P1;PMS_P2;Temp;Humidity;BMP_temperature;BMP_pressure;BME280_temperature;BME280_humidity;BME280_pressure;Samples;Min_cycle;Max_cycle;Signal;HPM_P1;HPM_P2
2021/09/18 00:02:21;;;;;;;19.13;8.93;;;;;;;20.74;66.96;99586.39;126339;1099;104181;-77
2021/09/18 00:04:51;;;;;;;18.80;8.07;;;;;;;20.71;67.29;99572.22;126327;1098;104143;-79
2021/09/18 00:07:23;;;;;;;17.07;8.33;;;;;;;20.71;67.26;99573.13;126307;1099;104140;-78
2021/09/18 00:09:54;;;;;;;18.87;8.73;;;;;;;20.72;67.37;99574.86;126329;1099;104152;-79
2021/09/18 00:12:25;;;;;;;16.30;7.53;;;;;;;20.73;66.52;99565.09;126358;1099;104137;-78
2021/09/18 00:14:56;;;;;;;20.20;8.33;;;;;;;20.73;67.35;99570.42;126306;1099;104200;-78
2021/09/18 00:17:27;;;;;;;18.50;8.50;;;;;;;20.74;67.05;99580.16;126224;1099;104153;-78
2021/09/18 00:19:58;;;;;;;14.97;8.10;;;;;;;20.74;66.71;99570.39;126246;1099;104171;-78
2021/09/18 00:22:29;;;;;;;21.20;8.73;;;;;;;20.76;67.66;99579.23;126219;1099;104172;-77
2021/09/18 00:25:00;;;;;;;15.37;8.00;;;;;;;20.76;67.51;99576.55;126242;1099;104150;-78
2021/09/18 00:27:31;;;;;;;18.67;8.53;;;;;;;20.76;67.34;99573.89;126278;1099;101961;-79
2021/09/18 00:30:01;;;;;;;16.87;7.83;;;;;;;20.78;66.41;99574.73;126230;1099;101802;-78
2021/09/18 00:32:32;;;;;;;18.97;8.13;;;;;;;20.77;66.96;99569.43;126251;1098;104187;-77
2021/09/18 00:35:05;;;;;;;23.13;9.00;;;;;;;20.74;67.34;99572.16;126187;1099;104219;-77
2021/09/18 00:37:36;;;;;;;19.12;8.88;;;;;;;20.75;67.26;99569.46;126192;1099;104149;-77
2021/09/18 00:40:10;;;;;;;15.60;8.77;;;;;;;20.77;67.08;99572.99;126212;1099;104223;-77
2021/09/18 00:42:40;;;;;;;16.03;8.10;;;;;;;20.77;67.72;99562.33;126317;1099;104334;-79
2021/09/18 00:45:12;;;;;;;17.23;8.37;;;;;;;20.76;67.85;99552.56;126281;1099;104229;-79
2021/09/18 00:47:43;;;;;;;17.97;8.73;;;;;;;20.74;68.22;99546.40;126283;1099;104159;-79
2021/09/18 00:50:17;;;;;;;21.17;9.17;;;;;;;20.73;68.22;99546.44;126286;1099;104146;-77
2021/09/18 00:52:49;;;;;;;17.17;8.93;;;;;;;20.72;68.06;99550.00;126270;1099;104204;-78
2021/09/18 00:55:20;;;;;;;19.77;9.20;;;;;;;20.70;68.08;99552.70;126330;1099;104198;-78
2021/09/18 00:57:51;;;;;;;18.10;9.20;;;;;;;20.67;67.63;99555.42;126308;1098;104294;-77
2021/09/18 01:00:21;;;;;;;16.57;9.07;;;;;;;20.63;68.20;99556.35;126337;1099;104258;-77
2021/09/18 01:02:52;;;;;;;17.93;8.70;;;;;;;20.59;68.66;99554.67;126199;1099;104306;-78
2021/09/18 01:05:23;;;;;;;19.93;9.60;;;;;;;20.56;68.91;99546.75;126226;1099;104758;-78
2021/09/18 01:07:57;;;;;;;19.83;8.97;;;;;;;20.54;68.45;99540.58;126148;1099;104316;-78
2021/09/18 01:10:29;;;;;;;20.73;9.53;;;;;;;20.54;69.21;99540.58;125469;1099;104611;-79
2021/09/18 01:13:02;;;;;;;21.10;9.70;;;;;;;20.55;69.09;99528.98;126179;1099;104216;-78
2021/09/18 01:15:34;;;;;;;18.47;9.47;;;;;;;20.57;69.17;99528.06;126230;1099;104313;-78
2021/09/18 01:18:08;;;;;;;19.83;9.00;;;;;;;20.61;68.64;99526.20;126074;1099;104198;-79
2021/09/18 01:20:42;;;;;;;19.23;9.33;;;;;;;20.65;69.25;99525.27;125442;1099;104405;-79
2021/09/18 01:23:13;;;;;;;18.70;8.63;;;;;;;20.66;69.02;99529.66;126333;1099;104169;-78
2021/09/18 01:25:44;;;;;;;18.93;8.60;;;;;;;20.70;69.28;99526.03;126322;1099;102037;-78
2021/09/18 01:28:16;;;;;;;19.03;9.47;;;;;;;20.71;68.90;99535.80;126268;1099;104165;-77
2021/09/18 01:30:48;;;;;;;19.40;9.07;;;;;;;20.72;69.44;99534.88;126354;1099;104252;-78
2021/09/18 01:33:19;;;;;;;19.57;9.27;;;;;;;20.71;68.96;99530.47;126321;1099;104139;-78
2021/09/18 01:35:50;;;;;;;22.33;9.20;;;;;;;20.71;69.54;99525.14;126352;1099;104165;-79
2021/09/18 01:38:20;;;;;;;16.63;8.70;;;;;;;20.72;68.97;99520.67;126318;1099;104179;-78
2021/09/18 01:40:52;;;;;;;20.63;8.40;;;;;;;20.71;68.43;99522.47;126335;1099;104219;-78
2021/09/18 01:43:23;;;;;;;20.30;9.17;;;;;;;20.68;69.51;99514.55;126287;1099;104217;-77
2021/09/18 01:45:54;;;;;;;20.67;9.30;;;;;;;20.68;69.24;99511.88;126332;1099;104319;-77
2021/09/18 01:48:25;;;;;;;19.87;9.40;;;;;;;20.70;68.76;99514.52;126254;1099;104624;-78
2021/09/18 01:50:59;;;;;;;19.93;9.30;;;;;;;20.66;69.40;99511.02;126329;1099;104146;-77
2021/09/18 01:53:29;;;;;;;;;;;;;;;20.65;68.84;99509.28;126365;1099;104165;-77
2021/09/18 01:56:00;;;;;;;17.93;8.53;;;;;;;20.61;68.91;99515.54;126310;1099;104290;-78
2021/09/18 01:58:31;;;;;;;19.90;10.23;;;;;;;20.58;69.94;99516.47;126200;1098;104303;-78
2021/09/18 02:01:03;;;;;;;21.47;9.27;;;;;;;20.58;69.55;99513.80;126351;1099;104137;-78
2021/09/18 02:03:35;;;;;;;21.63;9.73;;;;;;;20.55;69.67;99519.20;126358;1099;104163;-78
2021/09/18 02:06:06;;;;;;;19.80;9.90;;;;;;;20.53;68.96;99521.03;126377;1099;104139;-77
2021/09/18 02:08:37;;;;;;;23.10;9.40;;;;;;;20.53;69.75;99514.83;126288;1099;104300;-77
2021/09/18 02:11:07;;;;;;;18.13;8.90;;;;;;;20.54;68.66;99521.92;126293;1098;104152;-79
2021/09/18 02:13:38;;;;;;;20.40;9.90;;;;;;;20.53;68.82;99522.83;126351;1099;104252;-77
2021/09/18 02:16:10;;;;;;;18.03;9.23;;;;;;;20.54;69.55;99516.59;126279;1099;104140;-78
2021/09/18 02:18:41;;;;;;;20.10;10.17;;;;;;;20.56;69.25;99522.77;126292;1099;104271;-78
2021/09/18 02:21:12;;;;;;;25.03;10.03;;;;;;;20.58;68.85;99524.47;126229;1099;104264;-78
2021/09/18 02:23:42;;;;;;;17.87;9.50;;;;;;;20.61;69.62;99523.53;126314;1099;104284;-78
2021/09/18 02:26:13;;;;;;;20.63;10.10;;;;;;;20.62;69.71;99518.17;126347;1098;104563;-78
2021/09/18 02:28:44;;;;;;;16.87;9.83;;;;;;;20.63;69.80;99521.70;126323;1099;105289;-77
2021/09/18 02:31:18;;;;;;;19.87;10.20;;;;;;;20.62;70.03;99525.30;126330;1099;104146;-78
2021/09/18 02:33:50;;;;;;;19.50;10.20;;;;;;;20.60;69.49;99525.33;126340;1099;104284;-78
2021/09/18 02:36:22;;;;;;;18.67;9.80;;;;;;;20.58;68.93;99523.59;126325;1099;104146;-78
2021/09/18 02:38:54;;;;;;;22.07;10.57;;;;;;;20.54;69.35;99516.59;126211;1099;104166;-78
2021/09/18 02:41:25;;;;;;;22.00;10.93;;;;;;;20.52;70.04;99513.96;126332;1099;104149;-78
2021/09/18 02:43:56;;;;;;;22.40;10.95;;;;;;;20.50;70.24;99523.75;126353;1099;104133;-77
2021/09/18 02:46:27;;;;;;;20.33;10.30;;;;;;;20.50;70.29;99520.22;126279;1099;104329;-77
2021/09/18 02:48:57;;;;;;;19.57;10.07;;;;;;;20.51;69.45;99524.66;126231;1099;104140;-79
2021/09/18 02:51:28;;;;;;;18.83;10.17;;;;;;;20.51;70.29;99528.19;126358;1099;104137;-77
2021/09/18 02:53:59;;;;;;;22.73;10.93;;;;;;;20.50;69.70;99517.56;126344;1099;104146;-79
2021/09/18 02:56:30;;;;;;;20.10;10.37;;;;;;;20.48;70.80;99518.45;126367;1099;104150;-79
2021/09/18 02:59:01;;;;;;;19.30;10.43;;;;;;;20.46;70.78;99520.28;126338;1099;104175;-78
2021/09/18 03:01:31;;;;;;;19.00;10.57;;;;;;;20.45;70.32;99523.84;126236;1099;109204;-78
2021/09/18 03:04:02;;;;;;;21.07;10.50;;;;;;;20.43;70.79;99531.00;126317;1097;104178;-78
2021/09/18 03:06:34;;;;;;;20.20;10.23;;;;;;;20.43;70.70;99531.00;126342;1099;104169;-77
2021/09/18 03:09:04;;;;;;;25.80;11.07;;;;;;;20.43;70.12;99535.47;126355;1099;104255;-78
2021/09/18 03:11:35;;;;;;;21.10;10.90;;;;;;;20.41;69.87;99532.83;126282;1099;104156;-79
2021/09/18 03:14:06;;;;;;;20.10;10.30;;;;;;;20.41;70.08;99538.16;126362;1099;104149;-77
2021/09/18 03:16:37;;;;;;;19.63;10.57;;;;;;;20.40;70.98;99543.52;126344;1099;104140;-78
2021/09/18 03:19:08;;;;;;;23.87;11.47;;;;;;;20.35;70.47;99543.61;126290;1099;104230;-77
2021/09/18 03:21:38;;;;;;;23.17;10.23;;;;;;;20.30;69.81;99542.80;126260;1099;104246;-79
2021/09/18 03:24:09;;;;;;;21.80;10.93;;;;;;;20.20;70.56;99544.77;126355;1099;104133;-79
2021/09/18 03:26:43;;;;;;;20.03;10.80;;;;;;;20.13;70.80;99539.59;126309;1099;104349;-77
2021/09/18 03:29:14;;;;;;;19.10;10.88;;;;;;;20.04;70.08;99544.19;126325;1097;104140;-79
2021/09/18 03:31:45;;;;;;;20.23;10.53;;;;;;;20.00;70.48;99539.81;126256;1099;104194;-79
2021/09/18 03:34:16;;;;;;;24.30;11.63;;;;;;;20.02;70.96;99545.11;126362;1098;104662;-79
2021/09/18 03:36:48;;;;;;;22.47;11.70;;;;;;;20.06;71.30;99544.16;126288;1099;104146;-78
2021/09/18 03:39:24;;;;;;;22.63;11.40;;;;;;;20.08;70.37;99540.54;126315;1099;104152;-79
2021/09/18 03:41:57;;;;;;;20.90;11.40;;;;;;;20.11;71.18;99539.61;126300;1099;104585;-78
2021/09/18 03:44:30;;;;;;;19.77;10.90;;;;;;;20.13;70.96;99543.11;126241;1099;104165;-77
2021/09/18 03:47:05;;;;;;;25.77;12.00;;;;;;;20.15;70.56;99548.41;126332;1099;104143;-79
2021/09/18 03:49:36;;;;;;;25.50;10.73;;;;;;;20.15;71.12;99556.41;126340;1099;104159;-77
2021/09/18 03:52:07;;;;;;;22.33;11.47;;;;;;;20.13;70.84;99561.76;126228;1099;105534;-79
2021/09/18 03:54:38;;;;;;;23.83;11.30;;;;;;;20.13;71.00;99558.23;126331;1099;104156;-79
2021/09/18 03:57:09;;;;;;;19.33;11.17;;;;;;;20.12;70.79;99557.36;126273;1099;104165;-77
2021/09/18 03:59:40;;;;;;;26.53;11.53;;;;;;;20.11;71.24;99567.11;126329;1099;104136;-78
2021/09/18 04:02:10;;;;;;;25.27;12.00;;;;;;;20.15;71.24;99573.28;126330;1098;104696;-78
2021/09/18 04:04:41;;;;;;;24.30;11.63;;;;;;;20.18;71.78;99575.89;126314;1099;104303;-78
2021/09/18 04:07:13;;;;;;;20.60;11.50;;;;;;;20.20;71.70;99578.53;126320;1099;104143;-77
2021/09/18 04:09:45;;;;;;;22.03;10.83;;;;;;;20.17;71.74;99578.59;126376;1099;104142;-78
2021/09/18 04:12:16;;;;;;;19.63;11.10;;;;;;;20.15;71.61;99575.95;126319;1099;104184;-77
2021/09/18 04:14:47;;;;;;;22.47;11.97;;;;;;;20.19;71.75;99579.42;126296;1099;101984;-79
2021/09/18 04:17:18;;;;;;;21.83;11.73;;;;;;;20.20;70.98;99578.53;126290;1099;104712;-78
2021/09/18 04:19:49;;;;;;;23.53;12.73;;;;;;;20.19;72.05;99580.29;126308;1099;104255;-79
2021/09/18 04:22:20;;;;;;;25.50;12.33;;;;;;;20.24;71.92;99577.55;126306;1099;104165;-78
2021/09/18 04:24:51;;;;;;;23.73;12.40;;;;;;;20.28;71.73;99573.92;126384;1099;104175;-77
2021/09/18 04:27:22;;;;;;;22.47;13.37;;;;;;;20.31;71.32;99584.52;126322;1099;104233;-79
2021/09/18 04:29:54;;;;;;;25.00;13.67;;;;;;;20.33;71.83;99585.36;126291;1099;104767;-78
2021/09/18 04:32:24;;;;;;;21.93;13.47;;;;;;;20.35;71.66;99582.67;126304;1099;104245;-78
2021/09/18 04:34:55;;;;;;;21.07;13.10;;;;;;;20.38;71.72;99582.61;126330;1097;104169;-79
2021/09/18 04:37:26;;;;;;;26.93;12.60;;;;;;;20.36;72.24;99582.64;126354;1099;104147;-78
2021/09/18 04:39:56;;;;;;;21.47;12.37;;;;;;;20.36;71.37;99585.30;126361;1099;104185;-79
2021/09/18 04:42:27;;;;;;;22.17;13.33;;;;;;;20.37;71.49;99583.55;126250;1099;104249;-78
2021/09/18 04:44:58;;;;;;;25.20;13.23;;;;;;;20.36;71.67;99582.64;126305;1099;104848;-78
2021/09/18 04:47:28;;;;;;;25.13;12.40;;;;;;;20.31;72.64;99584.52;126313;1097;104162;-79
2021/09/18 04:49:59;;;;;;;20.83;11.50;;;;;;;20.26;71.87;99592.60;126331;1099;104172;-79
2021/09/18 04:52:33;;;;;;;23.23;12.33;;;;;;;20.19;72.32;99587.41;126242;1099;104149;-79
2021/09/18 04:55:05;;;;;;;25.30;12.30;;;;;;;20.13;72.28;99583.06;126289;1099;104290;-79
2021/09/18 04:57:35;;;;;;;21.30;11.50;;;;;;;20.09;72.60;99594.70;126293;1099;104252;-78
2021/09/18 05:00:07;;;;;;;21.53;12.07;;;;;;;20.01;73.01;99601.95;126327;1099;104178;-78
2021/09/18 05:02:38;;;;;;;21.87;11.73;;;;;;;19.90;73.60;99600.34;126305;1098;104146;-77
2021/09/18 05:05:10;;;;;;;23.13;12.00;;;;;;;19.80;73.18;99608.50;126308;1099;104207;-79
2021/09/18 05:07:40;;;;;;;20.57;12.03;;;;;;;19.69;73.52;99606.84;126265;1099;104601;-77
2021/09/18 05:10:12;;;;;;;23.27;11.53;;;;;;;19.61;72.96;99602.56;126303;1099;104281;-77
2021/09/18 05:12:43;;;;;;;21.60;11.33;;;;;;;19.54;73.60;99602.66;126250;1099;102006;-78
2021/09/18 05:15:14;;;;;;;21.90;11.97;;;;;;;19.50;74.44;99608.05;126373;1098;104191;-78
2021/09/18 05:17:45;;;;;;;22.33;11.27;;;;;;;19.46;74.26;99617.87;126233;1099;104150;-78
2021/09/18 05:20:15;;;;;;;22.37;11.27;;;;;;;19.41;74.01;99617.03;126206;1099;104276;-79
2021/09/18 05:22:46;;;;;;;22.10;11.43;;;;;;;19.39;74.46;99617.06;126261;1099;104226;-78
2021/09/18 05:25:17;;;;;;;21.95;10.40;;;;;;;19.35;74.17;99628.66;126304;1099;104239;-79
2021/09/18 05:27:49;;;;;;;23.97;11.00;;;;;;;19.34;73.99;99629.55;126373;1099;104159;-79
2021/09/18 05:30:20;;;;;;;22.13;9.97;;;;;;;19.33;75.15;99634.89;126335;1099;104146;-78
2021/09/18 05:32:50;;;;;;;21.67;10.80;;;;;;;19.32;74.63;99623.39;126265;1097;104358;-78
2021/09/18 05:35:21;;;;;;;24.07;10.40;;;;;;;19.35;75.03;99633.08;126326;1099;104146;-77
2021/09/18 05:37:52;;;;;;;20.13;9.47;;;;;;;19.34;74.33;99624.23;126350;1099;104198;-78
2021/09/18 05:40:24;;;;;;;15.23;7.53;;;;;;;19.33;74.60;99630.44;126344;1098;104220;-77
2021/09/18 05:42:56;;;;;;;16.47;6.83;;;;;;;19.29;74.54;99634.06;126247;1099;104152;-78
2021/09/18 05:45:26;;;;;;;15.07;5.83;;;;;;;19.27;73.79;99638.50;126299;1099;104195;-78
2021/09/18 05:47:57;;;;;;;14.00;5.90;;;;;;;19.29;74.80;99643.80;126324;1099;104185;-79
2021/09/18 05:50:28;;;;;;;11.27;5.40;;;;;;;19.30;74.01;99642.91;126305;1098;104150;-79
2021/09/18 05:52:58;;;;;;;11.40;5.20;;;;;;;19.32;73.70;99649.98;126303;1099;105428;-77
2021/09/18 05:55:29;;;;;;;13.23;5.70;;;;;;;19.35;74.46;99654.36;126305;1099;104149;-78
2021/09/18 05:58:00;;;;;;;10.60;5.70;;;;;;;19.38;74.50;99652.56;126289;1098;104445;-79
2021/09/18 06:00:31;;;;;;;14.63;6.07;;;;;;;19.39;74.06;99648.11;126285;1099;104152;-79
2021/09/18 06:03:02;;;;;;;17.27;6.23;;;;;;;19.39;74.28;99648.98;126275;1099;104159;-79
2021/09/18 06:05:32;;;;;;;15.53;6.20;;;;;;;19.39;74.22;99651.64;126376;1099;104156;-78
2021/09/18 06:08:03;;;;;;;12.33;5.40;;;;;;;19.38;74.42;99660.55;126260;1099;104140;-77
2021/09/18 06:10:34;;;;;;;12.07;4.60;;;;;;;19.31;74.08;99660.64;126235;1099;104166;-79
2021/09/18 06:13:05;;;;;;;10.50;4.53;;;;;;;19.22;74.61;99659.84;126302;1099;104271;-77
2021/09/18 06:15:35;;;;;;;7.13;3.50;;;;;;;19.15;74.54;99667.91;126293;1099;110814;-79
2021/09/18 06:18:06;;;;;;;7.37;3.73;;;;;;;19.11;74.11;99674.19;126297;1100;104615;-77
2021/09/18 06:20:37;;;;;;;9.40;3.70;;;;;;;19.10;73.75;99677.74;126323;1098;104185;-77
2021/09/18 06:23:07;;;;;;;6.23;3.13;;;;;;;19.07;74.09;99675.13;126312;1099;104181;-78
2021/09/18 06:25:38;;;;;;;5.27;2.90;;;;;;;19.07;74.01;99681.30;126315;1099;104124;-79
2021/09/18 06:28:09;;;;;;;11.47;2.93;;;;;;;19.01;73.85;99682.28;126305;1097;104210;-77
2021/09/18 06:30:41;;;;;;;6.07;3.10;;;;;;;18.92;73.21;99679.73;126299;1099;104197;-79
2021/09/18 06:33:12;;;;;;;6.23;2.70;;;;;;;18.91;73.60;99685.94;126335;1099;104582;-77
2021/09/18 06:35:42;;;;;;;5.50;3.20;;;;;;;18.89;72.88;99687.73;126243;1099;104259;-78
2021/09/18 06:38:14;;;;;;;11.77;3.13;;;;;;;18.87;73.02;99689.55;126389;1099;104455;-77
2021/09/18 06:40:45;;;;;;;9.43;3.17;;;;;;;18.82;73.22;99699.29;126338;1098;104153;-79
2021/09/18 06:43:16;;;;;;;9.75;2.85;;;;;;;18.78;73.64;99695.80;126335;1099;104175;-79
2021/09/18 06:45:47;;;;;;;5.23;2.93;;;;;;;18.73;73.33;99696.73;126238;1099;104252;-79
2021/09/18 06:48:19;;;;;;;5.37;2.73;;;;;;;18.64;73.75;99695.06;126166;1099;104296;-77
2021/09/18 06:50:52;;;;;;;5.03;2.90;;;;;;;18.55;73.32;99711.09;126259;1099;104140;-79
2021/09/18 06:53:22;;;;;;;4.17;2.30;;;;;;;18.47;74.02;99713.82;126352;1099;104235;-78
2021/09/18 06:55:53;;;;;;;4.80;2.70;;;;;;;18.42;74.03;99707.68;126226;1099;104235;-79
2021/09/18 06:58:24;;;;;;;6.97;2.70;;;;;;;18.41;74.06;99709.44;126267;1099;104153;-78
2021/09/18 07:00:55;;;;;;;10.47;3.67;;;;;;;18.38;74.48;99706.80;126286;1099;104162;-77
2021/09/18 07:03:25;;;;;;;6.77;2.70;;;;;;;18.36;74.32;99705.95;126301;1099;104182;-78
2021/09/18 07:05:56;;;;;;;5.10;2.60;;;;;;;18.38;74.35;99711.25;126310;1099;105137;-78
2021/09/18 07:08:27;;;;;;;6.53;2.60;;;;;;;18.49;74.84;99701.39;126323;1099;104189;-78
2021/09/18 07:10:58;;;;;;;6.70;2.70;;;;;;;18.59;74.71;99707.49;126357;1099;104705;-80
2021/09/18 07:13:29;;;;;;;3.37;2.63;;;;;;;18.66;74.79;99706.55;126332;1099;105439;-78
2021/09/18 07:15:59;;;;;;;5.73;3.10;;;;;;;18.72;74.71;99700.30;126290;1099;104217;-78
2021/09/18 07:18:32;;;;;;;6.63;3.30;;;;;;;18.85;74.64;99696.63;126306;1099;104156;-80
2021/09/18 07:21:03;;;;;;;9.27;3.30;;;;;;;19.00;74.65;99701.78;126351;1097;104207;-78
2021/09/18 07:23:34;;;;;;;5.73;3.00;;;;;;;19.10;74.52;99705.20;126332;1099;104585;-77
2021/09/18 07:26:04;;;;;;;7.50;3.23;;;;;;;19.23;74.62;99705.95;126199;1098;104299;-77
2021/09/18 07:28:35;;;;;;;5.83;3.13;;;;;;;19.37;74.99;99711.10;126310;1099;104146;-78
2021/09/18 07:31:06;;;;;;;5.73;3.07;;;;;;;19.33;74.16;99709.38;126308;1099;104261;-79
2021/09/18 07:33:37;;;;;;;6.50;3.10;;;;;;;19.25;73.93;99714.78;126316;1099;104301;-78
2021/09/18 07:36:08;;;;;;;5.83;3.03;;;;;;;19.17;74.30;99711.34;126231;1099;104220;-78
2021/09/18 07:38:39;;;;;;;3.40;2.87;;;;;;;19.12;74.55;99713.16;126330;1098;104133;-77
2021/09/18 07:41:11;;;;;;;3.23;2.77;;;;;;;19.05;74.26;99720.34;126355;1099;104137;-77
2021/09/18 07:43:43;;;;;;;5.30;2.80;;;;;;;18.98;74.57;99718.63;126290;1099;104169;-77
2021/09/18 07:46:13;;;;;;;4.93;2.90;;;;;;;18.92;73.83;99702.78;126306;1099;104223;-80
2021/09/18 07:48:44;;;;;;;4.77;2.87;;;;;;;18.86;74.63;99712.56;126342;1099;104605;-77
2021/09/18 07:51:15;;;;;;;5.73;2.90;;;;;;;18.85;74.48;99707.27;126309;1099;104146;-78
2021/09/18 07:53:46;;;;;;;6.30;3.33;;;;;;;18.78;74.28;99708.21;126368;1099;104200;-78
2021/09/18 07:56:17;;;;;;;7.47;3.73;;;;;;;18.72;74.53;99726.87;126239;1099;104217;-78
2021/09/18 07:58:49;;;;;;;7.87;4.03;;;;;;;18.77;74.60;99711.75;126297;1099;104131;-78
2021/09/18 08:01:20;;;;;;;8.07;3.60;;;;;;;18.84;74.99;99718.78;126379;1099;104249;-78
2021/09/18 08:03:51;;;;;;;4.33;3.37;;;;;;;18.89;74.61;99724.95;126316;1099;104248;-76
2021/09/18 08:06:22;;;;;;;4.80;2.97;;;;;;;19.03;75.56;99719.48;126255;1099;104192;-77
2021/09/18 08:08:53;;;;;;;3.37;2.50;;;;;;;19.06;75.22;99731.84;126287;1099;104210;-77
2021/09/18 08:11:24;;;;;;;5.17;2.93;;;;;;;19.13;75.04;99729.09;126340;1099;104143;-78
2021/09/18 08:13:57;;;;;;;4.20;2.90;;;;;;;19.20;74.37;99729.92;126264;1099;104297;-78
2021/09/18 08:16:28;;;;;;;2.70;2.50;;;;;;;19.23;74.95;99732.55;126231;1096;104236;-77
2021/09/18 08:18:59;;;;;;;3.07;2.50;;;;;;;19.16;74.70;99737.03;126328;1099;104162;-78
2021/09/18 08:21:30;;;;;;;4.57;2.53;;;;;;;19.20;74.67;99743.23;126316;1097;104191;-78
2021/09/18 08:24:01;;;;;;;3.60;2.90;;;;;;;19.29;74.56;99740.45;126344;1099;104159;-78
2021/09/18 08:26:31;;;;;;;4.87;3.27;;;;;;;19.38;74.30;99744.77;126340;1099;104188;-77
2021/09/18 08:29:03;;;;;;;5.13;3.10;;;;;;;19.48;74.49;99735.78;126309;1097;104140;-78
2021/09/18 08:31:33;;;;;;;3.33;3.00;;;;;;;19.55;73.89;99733.91;126376;1099;104219;-79
2021/09/18 08:34:04;;;;;;;3.63;3.00;;;;;;;19.68;73.98;99737.27;126300;1099;104166;-78
2021/09/18 08:36:36;;;;;;;3.73;3.00;;;;;;;19.80;73.00;99730.95;126299;1099;104134;-78
2021/09/18 08:39:07;;;;;;;4.50;3.00;;;;;;;19.80;72.65;99726.48;126383;1099;104669;-77
2021/09/18 08:41:38;;;;;;;5.10;3.50;;;;;;;19.74;72.72;99723.88;126302;1099;104303;-78
2021/09/18 08:44:09;;;;;;;5.07;3.53;;;;;;;19.69;72.37;99731.93;126352;1099;104240;-78
2021/09/18 08:46:42;;;;;;;5.20;3.40;;;;;;;19.63;72.69;99739.12;126257;1097;104153;-78
2021/09/18 08:49:13;;;;;;;4.73;3.27;;;;;;;19.64;72.50;99736.45;126373;1099;104139;-79
2021/09/18 08:51:44;;;;;;;6.10;3.30;;;;;;;19.67;73.16;99735.53;126351;1099;104296;-77
2021/09/18 08:54:15;;;;;;;5.73;3.87;;;;;;;19.62;72.80;99735.59;126280;1099;104149;-77
2021/09/18 08:56:45;;;;;;;8.50;3.63;;;;;;;19.67;71.91;99731.08;126279;1099;104249;-79
2021/09/18 08:59:16;;;;;;;7.33;3.83;;;;;;;19.85;71.96;99729.09;126329;1099;104188;-80
2021/09/18 09:02:07;;;;;;;5.60;4.10;;;;;;;19.96;71.96;99734.25;126351;1099;104625;-79
2021/09/18 09:04:38;;;;;;;5.87;3.90;;;;;;;20.15;71.63;99721.53;126272;1099;104206;-78
2021/09/18 09:07:11;;;;;;;5.10;4.10;;;;;;;20.28;71.60;99720.44;126247;1099;104175;-78
2021/09/18 09:09:58;;;;;;;5.57;3.73;;;;;;;20.39;71.12;99723.80;126322;1099;104402;-77
2021/09/18 09:12:31;;;;;;;5.20;3.67;;;;;;;20.48;70.79;99728.09;126257;1097;104287;-77
2021/09/18 09:15:04;;;;;;;5.58;3.72;;;;;;;20.59;70.90;99727.91;126364;1097;104147;-79
2021/09/18 09:17:36;;;;;;;;;;;;;;;20.58;69.16;99726.14;126282;1099;104303;-79
2021/09/18 09:20:24;;;;;;;3.85;3.40;;;;;;;20.53;69.26;99736.02;126324;1097;104159;-77
2021/09/18 09:22:55;;;;;;;4.47;3.43;;;;;;;20.47;69.28;99736.98;126356;1099;104271;-78
2021/09/18 09:25:29;;;;;;;4.83;3.53;;;;;;;20.43;69.72;99733.50;126293;1099;104156;-78
2021/09/18 09:28:21;;;;;;;5.87;3.80;;;;;;;20.42;69.70;99728.20;126285;1099;104197;-76
2021/09/18 09:30:53;;;;;;;6.67;3.60;;;;;;;20.51;69.86;99727.17;126289;1099;104273;-78
2021/09/18 09:33:24;;;;;;;5.40;3.67;;;;;;;20.58;68.96;99728.81;126317;1099;104226;-78
2021/09/18 09:35:55;;;;;;;5.53;3.53;;;;;;;20.62;69.08;99722.53;126313;1099;104172;-80
2021/09/18 09:38:34;;;;;;;4.17;3.60;;;;;;;20.60;68.61;99724.31;126324;1099;105512;-78
2021/09/18 09:41:05;;;;;;;4.93;3.50;;;;;;;20.60;68.98;99729.65;126358;1099;104163;-78
2021/09/18 09:43:45;;;;;;;3.57;3.27;;;;;;;20.56;68.59;99725.30;126318;1099;104156;-78
2021/09/18 09:46:16;;;;;;;3.80;3.40;;;;;;;20.52;68.45;99731.58;126326;1098;104306;-78
2021/09/18 09:48:47;;;;;;;3.90;3.30;;;;;;;20.51;68.74;99729.84;126316;1099;104287;-78
2021/09/18 09:51:27;;;;;;;4.17;3.40;;;;;;;20.50;67.72;99733.40;126338;1099;104159;-78
2021/09/18 09:54:16;;;;;;;6.57;3.50;;;;;;;20.46;68.03;99737.91;126360;1099;104188;-77
2021/09/18 09:56:48;;;;;;;3.40;3.10;;;;;;;20.39;68.06;99738.91;126382;1099;104399;-77
2021/09/18 09:59:30;;;;;;;5.40;3.40;;;;;;;20.39;68.23;99737.11;126288;1099;104220;-78
2021/09/18 10:02:02;;;;;;;3.90;3.10;;;;;;;20.46;68.16;99738.78;126286;1099;104296;-77
2021/09/18 10:04:34;;;;;;;4.73;3.27;;;;;;;20.50;67.92;99738.73;126316;1099;104259;-78
2021/09/18 10:07:06;;;;;;;3.97;3.50;;;;;;;20.50;67.52;99739.60;126330;1099;104258;-78
2021/09/18 10:09:38;;;;;;;3.47;3.00;;;;;;;20.52;67.83;99742.23;126293;1099;104219;-78
2021/09/18 10:12:12;;;;;;;4.57;3.03;;;;;;;20.44;67.69;99740.61;126334;1099;104306;-79
2021/09/18 10:14:46;;;;;;;;;;;;;;;20.49;67.92;99743.19;126399;1098;104149;-78
2021/09/18 10:17:18;;;;;;;4.37;3.08;;;;;;;20.61;67.17;99744.75;126333;1099;104341;-79
2021/09/18 10:25:22;;;;;;;3.50;3.00;;;;;;;20.85;66.83;99738.14;126346;1099;104332;-79
2021/09/18 10:28:08;;;;;;;3.57;2.90;;;;;;;20.96;67.76;99727.27;126364;1099;104157;-80
2021/09/18 10:30:41;;;;;;;4.90;2.90;;;;;;;21.04;66.29;99725.33;126281;1099;112059;-77
2021/09/18 10:33:39;;;;;;;3.93;2.80;;;;;;;21.10;66.76;99719.87;126330;1099;104146;-78
2021/09/18 10:36:12;;;;;;;7.07;3.30;;;;;;;21.24;66.76;99727.59;126353;1099;104271;-78
2021/09/18 10:38:46;;;;;;;3.83;3.00;;;;;;;21.25;66.69;99720.47;126281;1099;104150;-79
2021/09/18 10:41:20;;;;;;;3.70;3.10;;;;;;;21.14;65.89;99729.55;126353;1099;104240;-78
2021/09/18 10:43:58;;;;;;;3.40;2.77;;;;;;;21.07;65.76;99719.93;126276;1097;104233;-78
2021/09/18 10:46:42;;;;;;;4.80;3.17;;;;;;;21.05;66.35;99723.53;126308;1099;104351;-77
2021/09/18 10:49:37;;;;;;;4.20;3.13;;;;;;;20.95;65.21;99728.17;126278;1099;104152;-78
2021/09/18 10:52:23;;;;;;;3.73;3.17;;;;;;;20.80;65.86;99723.99;126324;1099;104335;-77
2021/09/18 10:55:12;;;;;;;4.37;3.27;;;;;;;20.75;66.26;99740.08;126367;1099;104139;-78
2021/09/18 10:58:07;;;;;;;3.90;3.13;;;;;;;20.76;66.33;99740.98;126300;1099;104140;-77
2021/09/18 11:00:50;;;;;;;3.13;2.83;;;;;;;20.72;66.59;99750.79;126266;1099;104306;-78
2021/09/18 11:03:41;;;;;;;4.20;3.30;;;;;;;20.76;65.79;99748.97;126311;1099;104262;-78
2021/09/18 11:06:37;;;;;;;3.67;2.93;;;;;;;20.86;66.19;99747.88;126318;1099;104149;-78
2021/09/18 11:09:08;;;;;;;3.67;3.10;;;;;;;20.98;66.73;99749.45;126211;1099;104216;-77
2021/09/18 11:11:39;;;;;;;2.80;2.53;;;;;;;21.06;65.74;99752.84;126225;1096;110869;-78
2021/09/18 11:14:11;;;;;;;2.60;2.40;;;;;;;21.17;65.79;99757.97;126389;1099;104249;-78
2021/09/18 11:16:44;;;;;;;2.90;2.40;;;;;;;21.25;64.24;99752.48;126264;1099;104146;-77
2021/09/18 11:19:18;;;;;;;2.40;2.00;;;;;;;21.32;64.24;99762.13;126299;1099;104265;-78
2021/09/18 11:21:51;;;;;;;2.43;2.23;;;;;;;21.48;64.17;99746.67;126350;1099;104134;-78
2021/09/18 11:24:27;;;;;;;5.80;2.47;;;;;;;21.58;63.44;99744.71;126326;1097;104159;-78
2021/09/18 11:27:01;;;;;;;2.67;2.30;;;;;;;21.50;63.08;99752.88;126311;1099;104618;-77
2021/09/18 11:29:34;;;;;;;4.87;2.60;;;;;;;21.46;63.60;99765.39;126309;1099;104256;-78
2021/09/18 11:32:13;;;;;;;3.77;2.47;;;;;;;21.45;63.49;99760.95;126295;1099;107120;-79
2021/09/18 11:34:49;;;;;;;5.40;2.90;;;;;;;21.46;63.06;99761.85;126307;1099;104226;-78
2021/09/18 11:37:27;;;;;;;3.17;2.30;;;;;;;21.49;62.96;99764.48;126312;1099;104187;-79
2021/09/18 11:40:02;;;;;;;4.93;2.40;;;;;;;21.45;63.46;99768.09;126350;1099;104162;-78
2021/09/18 11:42:39;;;;;;;3.10;2.50;;;;;;;21.48;62.77;99771.56;126343;1099;104178;-76